Enterprise, Oklahoma
Current Conditions -  °F | °C
As of 11:55 PM on Sunday 25 Jan 2015 (Local Time) from KGZL Reporting Station
Few Clouds Few Clouds  
Wind Chill: 32°   Ceiling: Unl
Heat Index: 32°   Visibility: 10mi
Dew Point: 27°   Wind: 0mph
Humidity: 80%   Direction: NA
Pressure: 30.15"   Gusts: NA
Location:  35.2928°N, 95.0844°W
Report Text: KGZL 260555Z AUTO 00000KT 10SM FEW031 00/M03 A3015 RMK AO2
Loading
Personal Weather Stations






























Interactive Weather Map New forecast layout! Learn more

10-Day Weather Forecast

Advertisements
Track Severe Weather on mobile